Time;durP1;ratioP1;P1;durP2;ratioP2;P2;SDS_P1;SDS_P2;PMS_P1;PMS_P2;Temp;Humidity;BMP_temperature;BMP_pressure;BME280_temperature;BME280_humidity;BME280_pressure;Samples;Min_cycle;Max_cycle;Signal;HPM_P1;HPM_P2
2021/09/12 00:02:05;;;;;;;5.80;5.17;;;;;;;17.15;100.00;100537.22;5132595;28;20164;-73
2021/09/12 00:04:31;;;;;;;7.03;6.43;;;;;;;17.15;100.00;100535.28;5092667;27;1124999;-72
2021/09/12 00:06:56;;;;;;;6.13;5.53;;;;;;;17.14;100.00;100539.19;5133551;27;20169;-73
2021/09/12 00:09:22;;;;;;;7.67;5.70;;;;;;;17.16;100.00;100538.84;5133393;27;20168;-73
2021/09/12 00:11:47;;;;;;;6.50;6.00;;;;;;;17.16;100.00;100539.63;5133413;27;20700;-73
2021/09/12 00:14:13;;;;;;;7.90;7.10;;;;;;;17.17;100.00;100538.47;5133141;27;20600;-73
2021/09/12 00:16:38;;;;;;;6.90;5.57;;;;;;;17.19;100.00;100538.13;5133105;27;20172;-73
2021/09/12 00:19:04;;;;;;;7.73;7.03;;;;;;;17.19;100.00;100532.59;5133044;27;20237;-73
2021/09/12 00:21:29;;;;;;;7.67;6.43;;;;;;;17.20;100.00;100532.25;5132787;27;20173;-73
2021/09/12 00:23:54;;;;;;;9.27;6.90;;;;;;;17.21;100.00;100527.53;5132712;27;20196;-73
2021/09/12 00:26:20;;;;;;;6.77;6.17;;;;;;;17.23;100.00;100525.25;5133008;27;20259;-73
2021/09/12 00:28:45;;;;;;;8.10;6.93;;;;;;;17.23;100.00;100512.22;5132793;27;20241;-72
2021/09/12 00:31:10;;;;;;;8.67;7.63;;;;;;;17.23;100.00;100520.50;5132840;27;20612;-73
2021/09/12 00:33:36;;;;;;;7.30;6.70;;;;;;;17.25;100.00;100528.44;5132422;27;20650;-72
2021/09/12 00:36:01;;;;;;;7.63;7.03;;;;;;;17.26;100.00;100521.75;5131952;27;20615;-73
2021/09/12 00:38:26;;;;;;;8.00;7.30;;;;;;;17.28;100.00;100526.94;5133025;27;20183;-72
2021/09/12 00:40:56;;;;;;;7.23;6.50;;;;;;;17.30;100.00;100527.38;5132702;27;20180;-73
2021/09/12 00:43:21;;;;;;;7.27;6.57;;;;;;;17.31;100.00;100523.44;5132598;27;20192;-73
2021/09/12 00:45:54;;;;;;;8.30;7.40;;;;;;;17.31;100.00;100528.97;5132329;27;20272;-73
2021/09/12 00:48:20;;;;;;;7.17;6.43;;;;;;;17.33;100.00;100512.84;5132575;27;20171;-72
2021/09/12 00:50:45;;;;;;;6.77;6.17;;;;;;;17.34;100.00;100526.28;5132435;27;20173;-73
2021/09/12 00:53:11;;;;;;;7.80;7.10;;;;;;;17.34;100.00;100534.59;5113971;27;20176;-73
2021/09/12 00:55:38;;;;;;;10.80;6.80;;;;;;;17.34;100.00;100526.28;5132136;27;20253;-73
2021/09/12 00:58:04;;;;;;;7.43;6.80;;;;;;;17.33;100.00;100538.50;5132257;27;20264;-73
2021/09/12 01:00:30;;;;;;;8.20;7.40;;;;;;;17.33;100.00;100527.44;5132314;27;20718;-73
2021/09/12 01:02:55;;;;;;;8.17;7.00;;;;;;;17.34;100.00;100522.72;5114046;27;20176;-73
2021/09/12 01:05:20;;;;;;;6.60;5.70;;;;;;;17.30;100.00;100532.91;5131985;27;20184;-73
2021/09/12 01:07:46;;;;;;;7.23;6.53;;;;;;;17.27;100.00;100523.38;5132369;27;20171;-73
2021/09/12 01:10:12;;;;;;;7.67;5.73;;;;;;;17.24;100.00;100530.41;5132235;27;20248;-73
2021/09/12 01:12:37;;;;;;;8.80;7.23;;;;;;;17.21;100.00;100536.63;5113910;27;20194;-73
2021/09/12 01:15:05;;;;;;;8.67;7.87;;;;;;;17.19;100.00;100543.66;5131791;27;20192;-73
2021/09/12 01:17:31;;;;;;;8.57;7.80;;;;;;;17.17;100.00;100541.25;5131818;27;20172;-73
2021/09/12 01:19:56;;;;;;;8.27;7.57;;;;;;;17.15;100.00;100527.00;5132596;27;20563;-73
2021/09/12 01:22:22;;;;;;;8.63;7.83;;;;;;;17.16;100.00;100533.31;5131615;27;20263;-73
2021/09/12 01:24:48;;;;;;;9.10;8.30;;;;;;;17.15;100.00;100532.50;5113224;27;20184;-73
2021/09/12 01:27:14;;;;;;;7.83;7.13;;;;;;;17.14;100.00;100528.16;5125882;27;20170;-73
2021/09/12 01:29:39;;;;;;;8.13;7.33;;;;;;;17.13;100.00;100523.78;5131718;27;20255;-73
2021/09/12 01:32:05;;;;;;;8.57;7.70;;;;;;;17.12;100.00;100521.38;5131921;27;20184;-73
2021/09/12 01:34:30;;;;;;;6.67;6.10;;;;;;;17.10;100.00;100518.19;5131706;27;20232;-73
2021/09/12 01:36:55;;;;;;;7.73;7.03;;;;;;;17.07;100.00;100516.94;5131858;27;20185;-73
2021/09/12 01:39:21;;;;;;;9.67;8.67;;;;;;;17.07;100.00;100510.56;5131810;27;20179;-73
2021/09/12 01:41:46;;;;;;;9.47;8.20;;;;;;;17.07;100.00;100510.56;5131794;27;20501;-73
2021/09/12 01:44:12;;;;;;;11.20;9.27;;;;;;;17.06;100.00;100507.00;5131597;27;20187;-73
2021/09/12 01:46:46;;;;;;;9.23;8.33;;;;;;;17.06;100.00;100503.44;5131639;27;20260;-73
2021/09/12 01:49:12;;;;;;;7.30;6.47;;;;;;;17.06;100.00;100504.25;5131588;27;20169;-73
2021/09/12 01:51:37;;;;;;;9.40;8.50;;;;;;;17.05;100.00;100494.38;5132090;27;20177;-73
2021/09/12 01:54:03;;;;;;;8.37;7.37;;;;;;;17.05;100.00;100502.66;5131311;27;20176;-73
2021/09/12 01:56:28;;;;;;;8.80;8.00;;;;;;;17.05;100.00;100499.88;5131564;27;20268;-73
2021/09/12 01:58:53;;;;;;;8.77;8.00;;;;;;;17.03;100.00;100507.72;5131527;28;20597;-73
2021/09/12 02:01:19;;;;;;;7.77;7.03;;;;;;;17.01;100.00;100514.75;5131703;28;20176;-73
2021/09/12 02:03:45;;;;;;;9.47;8.63;;;;;;;17.01;100.00;100520.28;5131350;28;20191;-73
2021/09/12 02:06:10;;;;;;;8.83;6.87;;;;;;;17.01;100.00;100498.19;5131633;28;20228;-73
2021/09/12 02:08:36;;;;;;;9.90;8.60;;;;;;;16.98;100.00;100498.91;5131527;28;20178;-73
2021/09/12 02:11:01;;;;;;;9.30;8.53;;;;;;;16.97;100.00;100498.13;5131405;28;20526;-73
2021/09/12 02:13:26;;;;;;;8.53;7.83;;;;;;;16.95;100.00;100504.00;5131274;28;20635;-73
2021/09/12 02:15:52;;;;;;;8.27;7.47;;;;;;;16.93;100.00;100500.78;5131109;28;20208;-73
2021/09/12 02:18:17;;;;;;;12.03;8.20;;;;;;;16.95;100.00;100505.94;5131408;28;20221;-73
2021/09/12 02:20:43;;;;;;;8.97;7.97;;;;;;;16.97;100.00;100505.59;5131441;28;20515;-73
2021/09/12 02:23:08;;;;;;;8.57;7.73;;;;;;;16.95;100.00;100508.72;5131168;28;20211;-73
2021/09/12 02:25:36;;;;;;;8.57;7.83;;;;;;;16.93;100.00;100503.53;5131576;28;20221;-73
2021/09/12 02:28:03;;;;;;;8.90;8.20;;;;;;;16.93;100.00;100503.53;5131435;28;20188;-73
2021/09/12 02:30:28;;;;;;;7.90;7.20;;;;;;;16.93;100.00;100506.31;5131159;28;20571;-73
2021/09/12 02:32:54;;;;;;;7.97;7.23;;;;;;;16.93;100.00;100509.06;5112796;28;20236;-73
2021/09/12 02:35:19;;;;;;;7.57;6.87;;;;;;;16.95;100.00;100522.50;5130879;28;20196;-73
2021/09/12 02:37:44;;;;;;;9.50;8.60;;;;;;;16.93;100.00;100519.31;5131501;28;20169;-73
2021/09/12 02:40:11;;;;;;;9.17;8.37;;;;;;;16.92;100.00;100517.66;5131004;28;20529;-74
2021/09/12 02:42:38;;;;;;;9.33;8.53;;;;;;;16.90;100.00;100515.25;5131349;28;20187;-73
2021/09/12 02:45:05;;;;;;;9.90;9.00;;;;;;;16.87;100.00;100513.22;5130755;28;20616;-73
2021/09/12 02:47:30;;;;;;;10.37;9.40;;;;;;;16.84;100.00;100516.69;5131034;28;20179;-74
2021/09/12 02:49:56;;;;;;;9.63;8.77;;;;;;;16.82;100.00;100509.91;5130967;28;20177;-73
2021/09/12 02:52:21;;;;;;;11.30;10.27;;;;;;;16.80;100.00;100520.50;5130921;28;20172;-73
2021/09/12 02:54:46;;;;;;;10.93;9.97;;;;;;;16.79;100.00;100524.41;5130736;28;20913;-73
2021/09/12 02:57:12;;;;;;;11.47;10.43;;;;;;;16.78;100.00;100528.31;5131016;27;20639;-73
2021/09/12 02:59:37;;;;;;;11.67;10.57;;;;;;;16.78;100.00;100539.34;5134649;27;20181;-73
2021/09/12 03:02:02;;;;;;;8.90;8.10;;;;;;;16.77;100.00;100532.22;5134704;27;20180;-73
2021/09/12 03:04:28;;;;;;;7.97;7.33;;;;;;;16.76;100.00;100525.91;5134359;27;20195;-73
2021/09/12 03:06:53;;;;;;;10.40;9.47;;;;;;;16.76;100.00;100519.59;5134747;27;20181;-73
2021/09/12 03:09:18;;;;;;;11.37;9.93;;;;;;;16.75;100.00;100523.50;5134435;27;20272;-73
2021/09/12 03:11:44;;;;;;;10.03;9.20;;;;;;;16.76;100.00;100516.81;5134543;27;20172;-73
2021/09/12 03:14:09;;;;;;;11.20;10.20;;;;;;;16.76;100.00;100523.16;5134233;27;20283;-73
2021/09/12 03:16:35;;;;;;;11.60;9.37;;;;;;;16.76;100.00;100525.91;5134499;27;20228;-73
2021/09/12 03:19:00;;;;;;;11.73;10.40;;;;;;;16.77;100.00;100526.69;5134486;27;20180;-74
2021/09/12 03:21:25;;;;;;;12.33;10.77;;;;;;;16.76;100.00;100531.41;5134239;27;20208;-73
2021/09/12 03:23:51;;;;;;;10.57;9.67;;;;;;;16.77;100.00;100524.75;5133988;27;20612;-73
2021/09/12 03:26:16;;;;;;;12.50;10.97;;;;;;;16.78;100.00;100522.78;5134353;27;20474;-74
2021/09/12 03:28:41;;;;;;;10.87;9.97;;;;;;;16.77;100.00;100522.00;5134332;27;20179;-73
2021/09/12 03:31:07;;;;;;;10.20;9.40;;;;;;;16.75;100.00;100516.03;5134385;27;20767;-73
2021/09/12 03:33:32;;;;;;;10.73;9.83;;;;;;;16.75;100.00;100517.97;5134175;27;20180;-73
2021/09/12 03:35:58;;;;;;;10.80;9.70;;;;;;;16.72;100.00;100518.69;5133965;27;20202;-73
2021/09/12 03:38:24;;;;;;;11.57;10.57;;;;;;;16.72;100.00;100522.25;5134073;27;20173;-73
2021/09/12 03:40:49;;;;;;;10.73;9.57;;;;;;;16.69;100.00;100503.66;5134055;27;20176;-74
2021/09/12 03:43:14;;;;;;;9.80;8.90;;;;;;;16.69;100.00;100508.34;5134070;27;20181;-74
2021/09/12 03:45:40;;;;;;;10.27;9.27;;;;;;;16.67;100.00;100500.44;5133800;27;20275;-73
2021/09/12 03:48:06;;;;;;;10.17;9.37;;;;;;;16.64;100.00;100512.16;5134069;27;20645;-73
2021/09/12 03:50:31;;;;;;;9.83;8.83;;;;;;;16.61;100.00;100501.78;5133989;27;20541;-73
2021/09/12 03:52:57;;;;;;;11.20;9.83;;;;;;;16.61;100.00;100526.63;5133947;27;20168;-73
2021/09/12 03:55:22;;;;;;;9.90;9.00;;;;;;;16.59;100.00;100526.16;5133546;27;20284;-74
2021/09/12 03:57:49;;;;;;;10.50;9.60;;;;;;;16.59;100.00;100509.63;5134239;27;20179;-74
2021/09/12 04:00:14;;;;;;;9.97;9.07;;;;;;;16.57;100.00;100511.94;5140305;27;20172;-73
2021/09/12 04:02:41;;;;;;;10.00;9.00;;;;;;;16.55;100.00;100512.28;5136533;27;20221;-73
2021/09/12 04:05:07;;;;;;;9.03;8.23;;;;;;;16.56;100.00;100511.13;5134359;27;20658;-74
2021/09/12 04:07:33;;;;;;;9.10;8.10;;;;;;;16.54;100.00;100507.91;5133647;27;20176;-74
2021/09/12 04:09:58;;;;;;;16.40;9.87;;;;;;;16.56;100.00;100511.13;5132543;27;20172;-73
2021/09/12 04:12:23;;;;;;;11.10;10.00;;;;;;;16.55;100.00;100512.28;5133576;27;20172;-74
2021/09/12 04:14:49;;;;;;;9.70;8.80;;;;;;;16.57;100.00;100514.69;5133355;27;20219;-74
2021/09/12 04:17:15;;;;;;;10.50;9.47;;;;;;;16.59;100.00;100524.22;5133614;27;20169;-73
2021/09/12 04:19:40;;;;;;;9.97;9.00;;;;;;;16.59;100.00;100506.84;5133279;27;20183;-73
2021/09/12 04:22:06;;;;;;;9.53;7.80;;;;;;;16.59;100.00;100515.94;5114538;27;20534;-73
2021/09/12 04:24:31;;;;;;;9.83;8.80;;;;;;;16.60;100.00;100513.97;5132863;27;20255;-73
2021/09/12 04:26:56;;;;;;;12.10;10.90;;;;;;;16.59;100.00;100512.38;5114578;27;20177;-73
2021/09/12 04:29:22;;;;;;;10.00;9.00;;;;;;;16.60;100.00;100525.00;5132778;27;20172;-73
2021/09/12 04:31:48;;;;;;;9.97;9.07;;;;;;;16.60;100.00;100523.06;5132821;27;20172;-73
2021/09/12 04:34:13;;;;;;;9.27;8.37;;;;;;;16.60;100.00;100520.28;5132504;27;20240;-73
2021/09/12 04:36:38;;;;;;;10.63;9.50;;;;;;;16.60;100.00;100519.50;5132751;27;20173;-74
2021/09/12 04:39:04;;;;;;;10.57;9.57;;;;;;;16.61;100.00;100532.13;5132673;27;20211;-73
2021/09/12 04:41:29;;;;;;;10.10;8.90;;;;;;;16.61;100.00;100519.16;5132779;27;20259;-73
2021/09/12 04:43:55;;;;;;;9.87;9.00;;;;;;;16.62;100.00;100531.78;5132763;27;20229;-73
2021/09/12 04:46:20;;;;;;;9.97;9.07;;;;;;;16.62;100.00;100526.25;5132735;27;20616;-73
2021/09/12 04:48:46;;;;;;;9.13;8.33;;;;;;;16.63;100.00;100527.88;5132631;27;20691;-73
2021/09/12 04:51:11;;;;;;;9.03;8.13;;;;;;;16.62;100.00;100529.03;5132599;27;20169;-73
2021/09/12 04:53:36;;;;;;;8.77;7.97;;;;;;;16.60;100.00;100531.34;5132647;27;20537;-73
2021/09/12 04:56:02;;;;;;;9.30;8.40;;;;;;;16.60;100.00;100536.84;5132704;27;20290;-74
2021/09/12 04:58:27;;;;;;;9.77;8.70;;;;;;;16.59;100.00;100542.72;5113760;27;20179;-74
2021/09/12 05:00:52;;;;;;;14.73;9.37;;;;;;;16.58;100.00;100536.41;5132232;27;20173;-73
2021/09/12 05:03:18;;;;;;;9.73;8.83;;;;;;;16.58;100.00;100544.69;5132304;27;20173;-73
2021/09/12 05:05:43;;;;;;;8.90;8.10;;;;;;;16.59;100.00;100540.75;5131834;27;20603;-74
2021/09/12 05:08:08;;;;;;;9.93;8.63;;;;;;;16.61;100.00;100551.44;5132375;27;20184;-74
2021/09/12 05:10:34;;;;;;;9.27;8.37;;;;;;;16.61;100.00;100555.00;5132666;27;20183;-73
2021/09/12 05:12:59;;;;;;;9.80;8.80;;;;;;;16.62;100.00;100559.38;5132598;27;20184;-73
2021/09/12 05:15:25;;;;;;;10.23;9.17;;;;;;;16.64;100.00;100548.00;5131591;27;20200;-73
2021/09/12 05:17:50;;;;;;;9.43;8.47;;;;;;;16.66;100.00;100568.56;5131950;27;20539;-73
2021/09/12 05:20:15;;;;;;;9.60;8.47;;;;;;;16.67;100.00;100558.38;5131723;27;20184;-73
2021/09/12 05:22:41;;;;;;;9.33;8.43;;;;;;;16.72;100.00;100591.22;5127385;27;20172;-73
2021/09/12 05:25:07;;;;;;;9.00;8.13;;;;;;;16.75;100.00;100553.84;5120243;27;20703;-73
2021/09/12 05:27:32;;;;;;;10.00;8.90;;;;;;;16.77;100.00;100555.09;5131908;27;20275;-73
2021/09/12 05:29:58;;;;;;;9.33;8.43;;;;;;;16.81;100.00;100560.75;5131948;27;20259;-73
2021/09/12 05:32:23;;;;;;;8.47;7.43;;;;;;;16.85;100.00;100550.59;5131997;27;20168;-73
2021/09/12 05:34:49;;;;;;;9.00;8.13;;;;;;;16.88;100.00;100555.41;5131757;27;20239;-73
2021/09/12 05:37:14;;;;;;;8.63;7.03;;;;;;;16.90;100.00;100542.06;5132016;27;20173;-73
2021/09/12 05:39:39;;;;;;;7.80;5.90;;;;;;;16.90;100.00;100542.06;5131947;27;20172;-73
2021/09/12 05:42:05;;;;;;;7.10;6.43;;;;;;;16.89;100.00;100552.28;5113299;27;20565;-73
2021/09/12 05:44:31;;;;;;;6.73;6.13;;;;;;;16.89;100.00;100560.56;5131762;27;20534;-73
2021/09/12 05:46:57;;;;;;;9.20;7.23;;;;;;;16.87;100.00;100560.13;5132025;27;20299;-73
2021/09/12 05:49:22;;;;;;;8.03;7.23;;;;;;;16.87;100.00;100565.66;5131734;27;20259;-74
2021/09/12 05:51:48;;;;;;;8.40;6.43;;;;;;;16.90;100.00;100569.66;5131729;27;20616;-72
2021/09/12 05:54:13;;;;;;;8.50;5.90;;;;;;;16.92;100.00;100570.94;5131482;27;20168;-72
2021/09/12 05:56:39;;;;;;;7.87;6.53;;;;;;;16.92;100.00;100565.41;5131710;27;20203;-72
2021/09/12 05:59:04;;;;;;;8.70;6.90;;;;;;;16.97;100.00;100577.34;5131694;27;20225;-72
2021/09/12 06:01:30;;;;;;;7.63;6.83;;;;;;;17.02;100.00;100572.38;5131633;28;20168;-72
2021/09/12 06:03:55;;;;;;;8.00;7.30;;;;;;;17.05;100.00;100570.88;5131494;28;20176;-72
2021/09/12 06:06:21;;;;;;;8.83;7.93;;;;;;;17.06;100.00;100578.78;5131509;28;20180;-72
2021/09/12 06:08:46;;;;;;;8.97;8.07;;;;;;;17.12;100.00;100577.41;5131562;28;20172;-72
2021/09/12 06:11:11;;;;;;;8.27;7.37;;;;;;;17.17;100.00;100579.91;5131437;28;20256;-72
2021/09/12 06:13:38;;;;;;;8.23;7.43;;;;;;;17.19;100.00;100580.34;5131369;28;20612;-72
2021/09/12 06:16:05;;;;;;;10.07;9.07;;;;;;;17.23;100.00;100580.47;5131330;28;20747;-71
2021/09/12 06:18:30;;;;;;;9.43;8.53;;;;;;;17.28;100.00;100579.41;5131351;28;20254;-72
2021/09/12 06:20:55;;;;;;;11.20;8.17;;;;;;;17.34;100.00;100586.25;5131321;28;20263;-72
2021/09/12 06:23:21;;;;;;;12.10;9.23;;;;;;;17.36;100.00;100573.72;5131195;28;20299;-72
2021/09/12 06:25:46;;;;;;;11.43;9.87;;;;;;;17.42;100.00;100585.31;5131220;27;20200;-73
2021/09/12 06:28:12;;;;;;;11.20;9.27;;;;;;;17.41;100.00;100580.94;5131278;28;20212;-72
2021/09/12 06:30:37;;;;;;;10.07;9.07;;;;;;;17.39;100.00;100575.78;5131247;28;20248;-73
2021/09/12 06:33:03;;;;;;;11.93;10.20;;;;;;;17.39;100.00;100577.72;5132761;27;20244;-73
2021/09/12 06:35:28;;;;;;;13.60;9.43;;;;;;;17.36;100.00;100586.69;5116613;27;20203;-73
2021/09/12 06:37:53;;;;;;;14.90;11.07;;;;;;;17.32;100.00;100578.31;5135161;27;20180;-73
2021/09/12 06:40:19;;;;;;;11.33;10.17;;;;;;;17.31;100.00;100584.22;5135296;27;20719;-73
2021/09/12 06:42:44;;;;;;;12.03;9.77;;;;;;;17.31;100.00;100585.00;5135135;27;20298;-73
2021/09/12 06:45:10;;;;;;;13.83;10.17;;;;;;;17.32;100.00;100578.31;5135036;27;20172;-73
2021/09/12 06:47:36;;;;;;;8.80;8.00;;;;;;;17.37;100.00;100582.81;5135205;27;20243;-73
2021/09/12 06:50:01;;;;;;;12.47;9.77;;;;;;;17.37;100.00;100582.81;5135044;27;20176;-73
2021/09/12 06:52:27;;;;;;;9.90;8.90;;;;;;;17.41;100.00;100586.47;5134965;27;20222;-73
2021/09/12 06:54:52;;;;;;;12.70;11.40;;;;;;;17.44;100.00;100582.97;5134745;27;20208;-73
2021/09/12 06:57:17;;;;;;;13.10;9.90;;;;;;;17.47;100.00;100583.06;5134979;27;20180;-72
2021/09/12 06:59:43;;;;;;;12.40;11.17;;;;;;;17.48;100.00;100583.88;5134886;27;20237;-73
2021/09/12 07:02:11;;;;;;;13.23;11.40;;;;;;;17.54;100.00;100585.25;5134912;27;20773;-72
2021/09/12 07:04:36;;;;;;;12.27;10.77;;;;;;;17.58;100.00;100583.34;5134524;27;20524;-72
2021/09/12 07:07:02;;;;;;;11.03;9.10;;;;;;;17.60;100.00;100583.81;5134695;27;20175;-72
2021/09/12 07:09:27;;;;;;;15.90;11.10;;;;;;;17.62;100.00;100586.22;5134807;27;20169;-72
2021/09/12 07:11:52;;;;;;;11.90;10.80;;;;;;;17.68;100.00;100580.09;5134789;27;20173;-72
2021/09/12 07:14:18;;;;;;;10.93;9.90;;;;;;;17.69;100.00;100578.94;5134461;27;20189;-72
2021/09/12 07:16:43;;;;;;;14.70;11.93;;;;;;;17.69;100.00;100578.94;5134450;27;20174;-73
2021/09/12 07:19:08;;;;;;;11.57;10.30;;;;;;;17.69;100.00;100584.47;5134577;27;20255;-73
2021/09/12 07:21:35;;;;;;;12.00;10.70;;;;;;;17.70;100.00;100575.03;5134225;27;20399;-72
2021/09/12 07:24:01;;;;;;;11.30;10.10;;;;;;;17.75;100.00;100585.81;5115855;27;20172;-72
2021/09/12 07:26:27;;;;;;;14.60;11.80;;;;;;;17.80;100.00;100577.25;5134302;27;20646;-78
2021/09/12 07:28:52;;;;;;;11.07;8.83;;;;;;;17.84;100.00;100588.41;5115328;27;20263;-80
2021/09/12 07:31:18;;;;;;;11.30;8.93;;;;;;;17.87;100.00;100584.13;5134120;27;20255;-80
2021/09/12 07:33:43;;;;;;;10.63;9.27;;;;;;;17.88;100.00;100581.00;5133723;27;20628;-80
2021/09/12 07:36:08;;;;;;;7.20;6.23;;;;;;;17.87;100.00;100593.22;5134010;27;20243;-77
2021/09/12 07:38:34;;;;;;;4.70;4.33;;;;;;;17.71;100.00;100590.44;5134136;27;20705;-73
2021/09/12 07:40:59;;;;;;;4.70;4.20;;;;;;;17.48;100.00;100590.19;5134245;27;20643;-73
2021/09/12 07:43:25;;;;;;;4.10;3.77;;;;;;;17.33;100.00;100598.47;5133718;27;20195;-73
2021/09/12 07:45:51;;;;;;;5.43;4.93;;;;;;;17.21;100.00;100604.84;5133919;27;20535;-72
2021/09/12 07:48:16;;;;;;;5.57;5.07;;;;;;;17.15;100.00;100593.25;5133923;27;20597;-73
2021/09/12 07:50:43;;;;;;;6.60;5.30;;;;;;;17.15;100.00;100609.03;5115496;27;20610;-72
2021/09/12 07:53:08;;;;;;;5.73;5.17;;;;;;;17.10;100.00;100620.31;5133822;27;20632;-73
2021/09/12 07:55:34;;;;;;;8.33;4.80;;;;;;;17.03;100.00;100642.19;5133729;27;20204;-73
2021/09/12 07:57:59;;;;;;;4.80;4.40;;;;;;;17.00;100.00;100612.53;5134128;27;20168;-73
2021/09/12 08:00:24;;;;;;;5.93;3.50;;;;;;;16.97;100.00;100627.84;5133676;27;20168;-73
2021/09/12 08:02:50;;;;;;;3.37;3.03;;;;;;;16.91;100.00;100626.47;5133442;27;20718;-73
2021/09/12 08:05:15;;;;;;;3.80;3.50;;;;;;;16.91;100.00;100638.31;5133402;27;20199;-73
2021/09/12 08:07:40;;;;;;;5.27;4.73;;;;;;;16.95;100.00;100642.00;5133611;27;20530;-73
2021/09/12 08:10:06;;;;;;;3.73;3.43;;;;;;;16.97;100.00;100651.88;5133727;27;20225;-73
2021/09/12 08:12:32;;;;;;;2.67;2.47;;;;;;;16.91;100.00;100667.88;5133629;27;20169;-72
2021/09/12 08:14:57;;;;;;;4.17;3.00;;;;;;;16.93;100.00;100637.97;5133058;27;20588;-73
2021/09/12 08:17:22;;;;;;;3.37;3.10;;;;;;;16.93;100.00;100651.78;5133170;27;20646;-73
2021/09/12 08:19:48;;;;;;;3.40;3.10;;;;;;;16.92;100.00;100633.59;5133456;27;20532;-73
2021/09/12 08:22:13;;;;;;;3.20;2.97;;;;;;;16.93;100.00;100646.25;5133177;27;20173;-73
2021/09/12 08:24:38;;;;;;;2.77;2.57;;;;;;;16.92;100.00;100645.47;5133019;27;20176;-73
2021/09/12 08:27:04;;;;;;;2.87;2.67;;;;;;;16.95;100.00;100642.00;5133018;27;20171;-72
2021/09/12 08:29:29;;;;;;;3.50;3.20;;;;;;;16.93;100.00;100640.75;5133181;27;20203;-73
2021/09/12 08:31:55;;;;;;;3.63;2.93;;;;;;;16.90;100.00;100636.69;5133023;27;20222;-75
2021/09/12 08:34:23;;;;;;;2.83;2.63;;;;;;;16.95;100.00;100643.94;5132840;27;20368;-74
2021/09/12 08:36:48;;;;;;;3.20;2.90;;;;;;;17.00;100.00;100640.94;5132628;27;20172;-74
2021/09/12 08:39:14;;;;;;;4.20;3.50;;;;;;;17.10;100.00;100647.94;5133054;27;20522;-75
2021/09/12 08:41:39;;;;;;;3.77;3.47;;;;;;;17.12;100.00;100640.09;5132687;27;20183;-74
2021/09/12 08:44:06;;;;;;;2.60;2.40;;;;;;;17.16;100.00;100646.53;5132329;27;20255;-74
2021/09/12 08:46:31;;;;;;;2.87;2.67;;;;;;;17.18;100.00;100645.00;5132653;27;20284;-74
2021/09/12 08:48:57;;;;;;;4.40;3.70;;;;;;;17.32;100.00;100643.81;5132485;27;20695;-75
2021/09/12 08:51:24;;;;;;;4.20;3.90;;;;;;;17.51;100.00;100660.53;5132490;27;20169;-75
2021/09/12 08:53:50;;;;;;;4.60;4.10;;;;;;;17.63;100.00;100651.38;5132290;27;20180;-75
2021/09/12 08:56:15;;;;;;;4.87;4.37;;;;;;;17.72;100.00;100652.84;5131635;27;20563;-75
2021/09/12 08:58:40;;;;;;;4.37;3.87;;;;;;;17.77;100.00;100657.31;5132180;27;20212;-75
2021/09/12 09:01:06;;;;;;;3.90;3.60;;;;;;;17.77;100.00;100655.34;5132229;27;20230;-75
2021/09/12 09:03:36;;;;;;;4.70;2.60;;;;;;;17.69;100.00;100653.56;5132184;27;20263;-75
2021/09/12 09:06:12;;;;;;;3.33;2.73;;;;;;;17.66;100.00;100657.00;5127065;27;20188;-75
2021/09/12 09:08:55;;;;;;;2.20;2.00;;;;;;;17.57;100.00;100664.66;5131941;27;20175;-76
2021/09/12 09:11:31;;;;;;;1.63;1.53;;;;;;;17.44;100.00;100654.81;5132196;27;20176;-75
2021/09/12 09:14:11;;;;;;;2.40;2.20;;;;;;;17.44;100.00;100654.81;5131991;27;20172;-75
2021/09/12 09:16:37;;;;;;;2.50;2.27;;;;;;;17.44;100.00;100650.09;5132139;27;20653;-75
2021/09/12 09:19:04;;;;;;;1.73;1.63;;;;;;;17.44;100.00;100661.13;5113622;27;20181;-74
2021/09/12 09:21:32;;;;;;;1.60;1.50;;;;;;;17.47;100.00;100654.91;5131798;27;20326;-74
2021/09/12 09:24:10;;;;;;;2.13;1.93;;;;;;;17.53;100.00;100652.69;5131845;27;20176;-73
2021/09/12 09:26:47;;;;;;;2.90;2.33;;;;;;;17.72;100.00;100652.84;5132095;27;20176;-74
2021/09/12 09:29:13;;;;;;;3.13;2.93;;;;;;;17.74;100.00;100647.75;5131942;27;20587;-75
2021/09/12 09:31:40;;;;;;;3.30;3.00;;;;;;;17.74;100.00;100646.97;5131617;27;20165;-75
2021/09/12 09:34:16;;;;;;;4.00;3.60;;;;;;;17.77;100.00;100646.25;5131773;27;20222;-75
2021/09/12 09:36:42;;;;;;;3.50;3.20;;;;;;;17.74;100.00;100646.97;5129622;27;20204;-74
2021/09/12 09:39:08;;;;;;;3.40;3.20;;;;;;;17.80;100.00;100649.13;5113764;27;20219;-74
2021/09/12 09:41:38;;;;;;;3.30;3.10;;;;;;;17.82;100.00;100637.72;5131566;27;20184;-74
2021/09/12 09:44:13;;;;;;;2.30;2.10;;;;;;;17.80;100.00;100648.31;5131750;27;20541;-75
2021/09/12 09:46:41;;;;;;;3.13;2.93;;;;;;;17.72;100.00;100638.22;5130098;27;20172;-74
2021/09/12 09:49:29;;;;;;;4.57;4.20;;;;;;;17.90;100.00;100644.22;5126332;27;20531;-75
2021/09/12 09:52:00;;;;;;;5.07;3.93;;;;;;;18.07;100.00;100646.63;5129834;27;20176;-76
2021/09/12 09:54:28;;;;;;;2.83;2.60;;;;;;;18.11;100.00;100645.56;5127175;27;20196;-75
2021/09/12 09:56:55;;;;;;;5.23;3.97;;;;;;;18.14;100.00;100649.56;5131631;27;20165;-75
2021/09/12 09:59:23;;;;;;;5.10;4.63;;;;;;;18.19;100.00;100648.50;5127385;27;20183;-75
2021/09/12 10:01:51;;;;;;;8.00;5.83;;;;;;;18.22;100.00;100651.34;5131920;28;20251;-75
2021/09/12 10:04:22;;;;;;;5.97;4.13;;;;;;;18.19;100.00;100652.06;5131231;28;20632;-75
2021/09/12 10:06:49;;;;;;;5.53;4.97;;;;;;;18.00;100.00;100661.06;5132684;27;20168;-75
2021/09/12 10:09:16;;;;;;;6.40;5.53;;;;;;;17.96;100.00;100657.44;5135917;27;20263;-74
2021/09/12 10:11:46;;;;;;;7.07;6.47;;;;;;;18.04;100.00;100663.94;5135966;27;20204;-75
2021/09/12 10:14:16;;;;;;;7.03;6.43;;;;;;;18.12;100.00;100660.19;5132558;27;20533;-75
2021/09/12 10:16:43;;;;;;;7.37;6.53;;;;;;;18.21;100.00;100658.03;5132545;27;20535;-74
2021/09/12 10:19:08;;;;;;;6.17;5.40;;;;;;;18.18;100.00;100656.00;5134965;27;20540;-74
2021/09/12 10:21:34;;;;;;;5.57;5.07;;;;;;;18.29;100.00;100662.59;5116800;27;20180;-75
2021/09/12 10:24:03;;;;;;;6.27;5.77;;;;;;;18.41;100.00;100651.44;5134150;27;20656;-75
2021/09/12 10:26:40;;;;;;;7.37;6.10;;;;;;;18.56;100.00;100649.00;5130639;27;20169;-74
2021/09/12 10:29:53;;;;;;;6.57;5.80;;;;;;;18.68;100.00;100646.94;5130767;27;20183;-74
2021/09/12 10:32:35;;;;;;;4.43;4.03;;;;;;;18.72;100.00;100641.47;5134599;27;20164;-75
2021/09/12 10:35:15;;;;;;;7.27;6.67;;;;;;;18.76;100.00;100639.59;5133723;27;20286;-74
2021/09/12 10:37:53;;;;;;;5.80;5.30;;;;;;;18.78;100.00;100640.03;5135028;27;20160;-74
2021/09/12 10:40:19;;;;;;;7.87;6.07;;;;;;;18.91;100.00;100637.94;5134679;27;20253;-75
2021/09/12 10:42:44;;;;;;;2.43;2.23;;;;;;;19.00;99.85;100641.31;5132917;27;20613;-74
2021/09/12 10:45:28;;;;;;;5.00;4.60;;;;;;;19.22;100.00;100642.53;5125902;27;20192;-74
2021/09/12 10:48:23;;;;;;;6.10;5.60;;;;;;;19.32;99.87;100639.19;5131861;27;20169;-74
2021/09/12 10:50:50;;;;;;;6.33;5.73;;;;;;;19.35;100.00;100632.91;5114239;28;20555;-75
2021/09/12 10:53:15;;;;;;;6.00;4.77;;;;;;;19.32;98.58;100639.97;5114306;28;20309;-73
2021/09/12 10:56:03;;;;;;;7.03;5.80;;;;;;;19.22;98.88;100625.91;5114297;28;20656;-73
2021/09/12 10:58:31;;;;;;;5.63;5.13;;;;;;;19.29;96.95;100628.84;5113557;28;20223;-73
2021/09/12 11:00:59;;;;;;;6.03;5.53;;;;;;;19.45;98.76;100632.31;5095780;28;20264;-74
2021/09/12 11:03:26;;;;;;;5.13;4.63;;;;;;;19.51;97.52;100641.91;5115920;27;20173;-73
2021/09/12 11:05:51;;;;;;;4.53;4.13;;;;;;;19.77;96.07;100630.16;5133112;27;20647;-74
2021/09/12 11:08:17;;;;;;;4.63;4.23;;;;;;;19.91;92.45;100641.50;5113631;27;20228;-74
2021/09/12 11:10:51;;;;;;;10.10;4.03;;;;;;;19.84;91.89;100640.59;5134287;27;20184;-74
2021/09/12 11:13:23;;;;;;;3.83;3.50;;;;;;;19.79;90.37;100633.34;5134277;27;20703;-74